Terminal Aerodrome Forecast
Issued by NWS

Home | Current Version | Previous Version | Text Only | Print | Product List | Glossary On
Versions: 1 2 3 4 5 6 7 8 9 10 11 12 13 14 15 16 17 18 19 20 21 22 23 24 25 26 27 28 29 30 31 32 33 34
000
FTUS46 KOTX 092018 AAB
TAFSFF
TAF AMD
KSFF 092018Z 0920/1018 00000KT 3SM -SN BR BKN011 OVC035
     FM100000 07003KT 6SM -SN SCT008 OVC018
     FM100300 VRB03KT 3SM -SN OVC008
     FM101200 VRB02KT 4SM -SN BR OVC005
     FM101600 25004KT 6SM BR OVC009=

USA.gov is the U.S. government's official web portal to all federal, state and local government web resources and services.